Time;durP1;ratioP1;P1;durP2;ratioP2;P2;SDS_P1;SDS_P2;PMS_P1;PMS_P2;Temp;Humidity;BMP_temperature;BMP_pressure;BME280_temperature;BME280_humidity;BME280_pressure;Samples;Min_cycle;Max_cycle;Signal;HPM_P1;HPM_P2
2023/09/05 00:01:51;;;;;;;1.00;1.00;;;;;;;18.36;100.00;99410.28;5111643;28;20199;-67
2023/09/05 00:04:18;;;;;;;1.57;1.57;;;;;;;18.38;100.00;99411.84;5110681;28;20206;-66
2023/09/05 00:06:46;;;;;;;1.30;1.30;;;;;;;18.39;100.00;99407.50;5111598;28;20191;-66
2023/09/05 00:09:14;;;;;;;0.93;0.93;;;;;;;18.41;100.00;99410.84;5110812;28;20203;-67
2023/09/05 00:11:41;;;;;;;1.33;1.20;;;;;;;18.41;100.00;99415.22;5111472;28;20670;-66
2023/09/05 00:14:11;;;;;;;1.27;1.27;;;;;;;18.38;100.00;99411.06;5110533;28;20715;-66
2023/09/05 00:16:38;;;;;;;1.00;1.00;;;;;;;18.41;100.00;99420.41;5111158;28;20197;-66
2023/09/05 00:19:06;;;;;;;1.27;1.27;;;;;;;18.47;100.00;99415.66;5111169;28;20252;-67
2023/09/05 00:21:32;;;;;;;1.57;1.47;;;;;;;18.47;100.00;99417.41;5110873;28;20246;-66
2023/09/05 00:24:23;;;;;;;1.27;1.27;;;;;;;18.41;100.00;99405.66;5111177;28;20252;-66
2023/09/05 00:26:50;;;;;;;1.37;1.30;;;;;;;18.40;100.00;99416.97;5102393;28;20199;-66
2023/09/05 00:29:19;;;;;;;1.10;1.10;;;;;;;18.38;100.00;99416.25;5110438;28;20201;-66
2023/09/05 00:31:46;;;;;;;1.17;1.13;;;;;;;18.40;100.00;99410.94;5111259;28;20634;-66
2023/09/05 00:34:13;;;;;;;1.10;1.10;;;;;;;18.39;100.00;99407.50;5110926;28;20565;-66
2023/09/05 00:36:40;;;;;;;1.13;1.03;;;;;;;18.40;100.00;99405.75;5110826;28;20253;-66
2023/09/05 00:39:08;;;;;;;1.07;1.07;;;;;;;18.45;100.00;99399.31;5110845;28;20201;-67
2023/09/05 00:41:35;;;;;;;1.10;1.10;;;;;;;18.48;100.00;99395.75;5110615;28;20199;-66
2023/09/05 00:44:02;;;;;;;1.13;1.13;;;;;;;18.47;100.00;99389.72;5110518;28;20198;-66
2023/09/05 00:46:31;;;;;;;0.90;0.90;;;;;;;18.50;100.00;99396.50;5110428;28;20672;-66
2023/09/05 00:49:02;;;;;;;0.97;0.97;;;;;;;18.49;100.00;99392.19;5111103;28;20207;-66
2023/09/05 00:51:30;;;;;;;1.47;1.37;;;;;;;18.52;100.00;99408.44;5110359;28;20254;-66
2023/09/05 00:53:56;;;;;;;1.23;1.20;;;;;;;18.53;100.00;99407.53;5111053;28;20255;-66
2023/09/05 00:56:25;;;;;;;0.80;0.77;;;;;;;18.53;100.00;99407.53;5110668;28;20200;-66
2023/09/05 00:58:52;;;;;;;1.10;1.10;;;;;;;18.55;100.00;99399.63;5110318;28;20192;-66
2023/09/05 01:01:19;;;;;;;0.80;0.80;;;;;;;18.59;100.00;99394.16;5110448;28;20204;-66
2023/09/05 01:03:47;;;;;;;1.33;1.33;;;;;;;18.62;100.00;99387.94;5110357;28;20195;-66
2023/09/05 01:06:22;;;;;;;1.30;1.30;;;;;;;18.57;100.00;99379.59;5110194;28;20219;-66
2023/09/05 01:08:57;;;;;;;1.30;1.20;;;;;;;18.49;100.00;99372.25;5110779;28;20203;-66
2023/09/05 01:11:25;;;;;;;1.17;1.17;;;;;;;18.43;100.00;99372.66;5110132;28;20196;-66
2023/09/05 01:13:52;;;;;;;1.43;1.37;;;;;;;18.36;100.00;99367.00;5110472;28;20226;-66
2023/09/05 01:16:18;;;;;;;1.80;1.70;;;;;;;18.31;100.00;99363.03;5110051;28;20192;-66
2023/09/05 01:18:47;;;;;;;1.80;1.47;;;;;;;18.23;100.00;99354.88;5110266;28;20258;-66
2023/09/05 01:21:24;;;;;;;1.30;1.20;;;;;;;18.27;100.00;99356.38;5110189;28;20564;-66
2023/09/05 01:23:57;;;;;;;1.03;1.03;;;;;;;18.21;100.00;99354.16;5110168;28;20251;-66
2023/09/05 01:26:26;;;;;;;1.30;1.20;;;;;;;18.25;100.00;99360.81;5110036;28;20693;-67
2023/09/05 01:28:53;;;;;;;1.30;1.17;;;;;;;18.29;100.00;99357.09;5110261;28;20200;-67
2023/09/05 01:31:21;;;;;;;2.23;1.40;;;;;;;18.28;100.00;99345.06;5110242;28;20268;-67
2023/09/05 01:33:48;;;;;;;1.20;1.13;;;;;;;18.41;100.00;99369.31;5109666;28;20252;-66
2023/09/05 01:36:15;;;;;;;0.80;0.80;;;;;;;18.47;100.00;99363.75;5110083;28;20260;-66
2023/09/05 01:38:42;;;;;;;0.93;0.93;;;;;;;18.49;100.00;99361.03;5110154;28;20699;-66
2023/09/05 01:41:09;;;;;;;1.20;1.20;;;;;;;18.40;100.00;99352.06;5109711;28;20190;-66
2023/09/05 01:43:37;;;;;;;2.13;1.10;;;;;;;18.44;100.00;99366.53;5110368;28;20252;-66
2023/09/05 01:46:04;;;;;;;1.37;1.07;;;;;;;18.41;100.00;99368.50;5109542;28;20256;-66
2023/09/05 01:48:31;;;;;;;1.10;1.10;;;;;;;18.36;100.00;99367.00;5109923;28;20204;-66
2023/09/05 01:50:57;;;;;;;0.90;0.90;;;;;;;18.33;100.00;99374.16;5109938;28;20200;-66
2023/09/05 01:53:24;;;;;;;1.17;1.17;;;;;;;18.35;100.00;99369.72;5109891;28;20632;-66
2023/09/05 01:55:51;;;;;;;1.03;1.03;;;;;;;18.40;100.00;99366.81;5110281;28;20681;-66
2023/09/05 01:58:18;;;;;;;1.03;1.03;;;;;;;18.45;100.00;99369.97;5109705;28;20196;-67
2023/09/05 02:00:46;;;;;;;1.73;1.63;;;;;;;18.37;100.00;99352.28;5110030;28;20196;-66
2023/09/05 02:03:13;;;;;;;1.40;1.30;;;;;;;18.42;100.00;99373.56;5109637;28;20195;-66
2023/09/05 02:05:39;;;;;;;1.40;1.30;;;;;;;18.42;100.00;99368.38;5109611;28;20265;-66
2023/09/05 02:08:06;;;;;;;1.03;1.03;;;;;;;18.42;100.00;99375.34;5109351;28;20204;-66
2023/09/05 02:10:33;;;;;;;1.70;1.60;;;;;;;18.45;100.00;99383.75;5112874;28;20202;-66
2023/09/05 02:13:00;;;;;;;2.27;2.07;;;;;;;18.49;100.00;99380.03;5113581;28;20279;-66
2023/09/05 02:15:27;;;;;;;1.40;1.30;;;;;;;18.47;100.00;99374.13;5113686;28;20196;-66
2023/09/05 02:17:55;;;;;;;1.17;1.17;;;;;;;18.48;100.00;99365.38;5113646;28;20204;-66
2023/09/05 02:20:24;;;;;;;1.80;1.70;;;;;;;18.44;100.00;99368.28;5112795;28;20208;-66
2023/09/05 02:22:52;;;;;;;1.10;1.10;;;;;;;18.43;100.00;99371.81;5113669;28;20562;-66
2023/09/05 02:25:19;;;;;;;1.83;1.10;;;;;;;18.39;100.00;99368.56;5113221;28;20211;-66
2023/09/05 02:27:45;;;;;;;0.70;0.70;;;;;;;18.37;100.00;99362.66;5113422;28;20200;-66
2023/09/05 02:30:12;;;;;;;1.20;1.10;;;;;;;18.40;100.00;99372.84;5113015;28;20619;-66
2023/09/05 02:32:39;;;;;;;1.20;1.20;;;;;;;18.37;100.00;99367.84;5113758;28;20634;-66
2023/09/05 02:35:08;;;;;;;1.10;1.10;;;;;;;18.37;100.00;99380.81;5112333;28;20194;-67
2023/09/05 02:37:34;;;;;;;1.00;1.00;;;;;;;18.37;100.00;99386.00;5113049;28;20285;-66
2023/09/05 02:40:03;;;;;;;0.90;0.90;;;;;;;18.36;100.00;99381.75;5112572;28;20257;-66
2023/09/05 02:42:30;;;;;;;1.97;1.87;;;;;;;18.36;100.00;99382.56;5113022;28;20299;-66
2023/09/05 02:44:57;;;;;;;2.10;1.20;;;;;;;18.38;100.00;99385.09;5113080;28;20224;-67
2023/09/05 02:47:24;;;;;;;1.37;1.37;;;;;;;18.39;100.00;99378.94;5113065;28;20671;-66
2023/09/05 02:49:51;;;;;;;2.00;1.10;;;;;;;18.38;100.00;99379.91;5112905;28;20195;-66
2023/09/05 02:52:21;;;;;;;1.30;1.30;;;;;;;18.43;100.00;99382.19;5112766;28;20196;-67
2023/09/05 02:54:48;;;;;;;0.97;0.97;;;;;;;18.44;100.00;99379.50;5110664;28;20198;-66
2023/09/05 02:57:14;;;;;;;1.20;1.20;;;;;;;18.47;100.00;99376.72;5112568;28;20200;-67
2023/09/05 02:59:41;;;;;;;1.30;1.20;;;;;;;18.49;100.00;99387.84;5112655;28;20199;-67
2023/09/05 03:02:08;;;;;;;1.37;1.37;;;;;;;18.51;100.00;99390.38;5111442;28;20826;-67
2023/09/05 03:04:34;;;;;;;1.30;1.30;;;;;;;18.53;100.00;99394.53;5113008;28;20650;-67
2023/09/05 03:07:02;;;;;;;2.93;1.77;;;;;;;18.50;100.00;99399.94;5112454;28;20210;-66
2023/09/05 03:09:30;;;;;;;0.87;0.87;;;;;;;18.56;100.00;99393.50;5112601;28;20190;-67
2023/09/05 03:11:57;;;;;;;1.40;1.40;;;;;;;18.53;100.00;99399.72;5111972;28;20288;-66
2023/09/05 03:14:24;;;;;;;2.07;1.90;;;;;;;18.53;100.00;99388.50;5112003;28;20225;-67
2023/09/05 03:16:50;;;;;;;1.40;1.40;;;;;;;18.54;100.00;99390.19;5112434;28;20253;-67
2023/09/05 03:19:21;;;;;;;1.60;1.50;;;;;;;18.55;100.00;99387.47;5112278;28;20267;-67
2023/09/05 03:21:48;;;;;;;1.03;1.03;;;;;;;18.54;100.00;99379.81;5112212;28;20621;-66
2023/09/05 03:24:18;;;;;;;1.60;1.50;;;;;;;18.55;100.00;99384.88;5111975;28;20199;-67
2023/09/05 03:26:47;;;;;;;1.40;1.40;;;;;;;18.50;100.00;99381.75;5112180;28;20210;-67
2023/09/05 03:29:14;;;;;;;2.57;1.37;;;;;;;18.45;100.00;99381.16;5111735;28;20198;-67
2023/09/05 03:31:41;;;;;;;1.60;1.50;;;;;;;18.46;100.00;99382.84;5112131;28;20196;-66
2023/09/05 03:34:07;;;;;;;1.07;1.07;;;;;;;18.45;100.00;99391.53;5111835;28;20208;-66
2023/09/05 03:36:37;;;;;;;1.20;1.13;;;;;;;18.41;100.00;99374.50;5110912;28;20196;-66
2023/09/05 03:39:03;;;;;;;0.87;0.87;;;;;;;18.48;100.00;99380.97;5111959;28;20738;-66
2023/09/05 03:41:31;;;;;;;0.93;0.93;;;;;;;18.46;100.00;99379.41;5111401;28;20198;-66
2023/09/05 03:43:59;;;;;;;1.07;1.07;;;;;;;18.45;100.00;99385.53;5111636;28;20203;-67
2023/09/05 03:46:26;;;;;;;1.20;1.20;;;;;;;18.45;100.00;99383.75;5111769;28;20219;-67
2023/09/05 03:48:53;;;;;;;1.13;1.13;;;;;;;18.49;100.00;99384.41;5111971;28;20191;-66
2023/09/05 03:51:19;;;;;;;1.30;1.30;;;;;;;18.47;100.00;99384.50;5111617;28;20191;-67
2023/09/05 03:53:46;;;;;;;1.43;1.43;;;;;;;18.39;100.00;99378.94;5111467;27;20575;-66
2023/09/05 03:56:13;;;;;;;1.50;1.50;;;;;;;18.43;100.00;99393.41;5110388;28;20240;-66
2023/09/05 03:58:39;;;;;;;1.10;1.10;;;;;;;18.47;100.00;99392.31;5111192;28;20201;-67
2023/09/05 04:01:14;;;;;;;1.53;1.43;;;;;;;18.52;100.00;99394.63;5111059;28;20197;-67
2023/09/05 04:03:41;;;;;;;0.90;0.90;;;;;;;18.53;100.00;99397.13;5111505;28;21632;-67
2023/09/05 04:06:07;;;;;;;1.83;1.73;;;;;;;18.52;100.00;99392.88;5110895;28;20211;-67
2023/09/05 04:08:34;;;;;;;2.17;2.07;;;;;;;18.56;100.00;99396.09;5111351;28;20631;-67
2023/09/05 04:11:02;;;;;;;1.77;1.67;;;;;;;18.56;100.00;99402.13;5110787;28;20323;-66
2023/09/05 04:13:29;;;;;;;1.40;1.40;;;;;;;18.60;100.00;99406.22;5109923;28;20255;-66
2023/09/05 04:15:56;;;;;;;1.20;1.20;;;;;;;18.62;100.00;99414.72;5111092;28;20199;-66
2023/09/05 04:18:24;;;;;;;1.20;1.20;;;;;;;18.65;100.00;99414.53;5111252;28;20760;-66
2023/09/05 04:20:57;;;;;;;1.40;1.40;;;;;;;18.73;100.00;99427.06;5111310;28;20672;-66
2023/09/05 04:23:24;;;;;;;1.50;1.40;;;;;;;18.71;100.00;99416.75;5111009;28;20275;-66
2023/09/05 04:25:57;;;;;;;2.03;1.47;;;;;;;18.80;100.00;99434.34;5111294;28;20682;-66
2023/09/05 04:28:25;;;;;;;6.13;1.50;;;;;;;18.80;100.00;99423.13;5111101;28;20722;-67
2023/09/05 04:30:55;;;;;;;1.40;1.40;;;;;;;18.79;100.00;99431.84;5111178;28;20644;-67
2023/09/05 04:33:25;;;;;;;1.43;1.40;;;;;;;18.89;100.00;99438.13;5110414;28;20215;-66
2023/09/05 04:35:52;;;;;;;1.60;1.60;;;;;;;18.92;100.00;99432.75;5110660;28;20279;-67
2023/09/05 04:38:19;;;;;;;1.47;1.43;;;;;;;18.90;100.00;99423.38;5110570;28;20248;-66
2023/09/05 04:40:46;;;;;;;1.43;1.37;;;;;;;18.92;100.00;99426.72;5111088;28;20253;-66
2023/09/05 04:43:13;;;;;;;2.50;1.73;;;;;;;18.95;100.00;99422.16;5110225;28;20685;-66
2023/09/05 04:45:39;;;;;;;1.30;1.30;;;;;;;18.96;100.00;99420.41;5110787;28;20223;-66
2023/09/05 04:48:07;;;;;;;1.40;1.40;;;;;;;18.91;100.00;99420.69;5109295;28;20202;-67
2023/09/05 04:50:35;;;;;;;1.13;1.13;;;;;;;18.90;100.00;99419.03;5110519;28;20281;-66
2023/09/05 04:53:01;;;;;;;1.30;1.30;;;;;;;18.90;100.00;99418.19;5110948;28;20276;-66
2023/09/05 04:55:28;;;;;;;1.00;1.00;;;;;;;18.90;100.00;99415.59;5110326;28;20204;-66
2023/09/05 04:57:55;;;;;;;1.20;1.20;;;;;;;18.86;100.00;99415.78;5110731;28;20297;-66
2023/09/05 05:00:23;;;;;;;1.17;1.17;;;;;;;18.85;100.00;99414.13;5110428;28;20200;-66
2023/09/05 05:02:50;;;;;;;1.00;1.00;;;;;;;18.84;100.00;99409.84;5110684;28;20198;-67
2023/09/05 05:05:17;;;;;;;1.00;1.00;;;;;;;18.86;100.00;99408.00;5110103;28;20190;-66
2023/09/05 05:07:45;;;;;;;1.43;1.37;;;;;;;18.83;100.00;99408.19;5109763;28;20263;-66
2023/09/05 05:10:13;;;;;;;1.23;1.23;;;;;;;18.85;100.00;99405.47;5110045;28;20229;-67
2023/09/05 05:12:41;;;;;;;1.30;1.30;;;;;;;18.83;100.00;99410.78;5106383;28;20368;-67
2023/09/05 05:15:08;;;;;;;1.07;1.07;;;;;;;18.87;100.00;99404.44;5103489;28;20255;-66
2023/09/05 05:17:35;;;;;;;1.30;1.30;;;;;;;18.88;100.00;99406.13;5109347;28;20200;-65
2023/09/05 05:20:03;;;;;;;0.83;0.83;;;;;;;18.91;100.00;99409.44;5107206;28;20201;-66
2023/09/05 05:22:30;;;;;;;1.57;1.47;;;;;;;18.94;100.00;99414.44;5108541;28;20207;-67
2023/09/05 05:24:58;;;;;;;1.23;1.23;;;;;;;18.95;100.00;99406.56;5109300;28;20615;-65
2023/09/05 05:27:25;;;;;;;2.60;1.57;;;;;;;19.00;100.00;99414.09;5109099;28;20266;-66
2023/09/05 05:29:52;;;;;;;1.03;1.03;;;;;;;19.02;100.00;99414.81;5108766;28;20210;-66
2023/09/05 05:32:19;;;;;;;6.73;1.63;;;;;;;19.06;100.00;99422.31;5108737;28;20236;-66
2023/09/05 05:34:48;;;;;;;1.20;1.20;;;;;;;19.07;100.00;99423.97;5108603;28;20197;-66
2023/09/05 05:37:16;;;;;;;1.10;1.10;;;;;;;19.07;100.00;99415.31;5109340;28;20195;-66
2023/09/05 05:39:42;;;;;;;1.30;1.20;;;;;;;19.07;100.00;99417.91;5109789;28;20196;-66
2023/09/05 05:42:11;;;;;;;1.67;1.57;;;;;;;19.01;100.00;99415.72;5109403;28;20201;-66
2023/09/05 05:44:38;;;;;;;1.23;1.23;;;;;;;19.01;100.00;99405.34;5111486;28;20191;-66
2023/09/05 05:47:05;;;;;;;2.00;1.20;;;;;;;19.02;100.00;99412.22;5111707;28;20274;-66
2023/09/05 05:49:32;;;;;;;1.07;1.07;;;;;;;19.01;100.00;99411.38;5113211;28;20218;-66
2023/09/05 05:52:00;;;;;;;1.60;1.60;;;;;;;19.00;100.00;99403.69;5112169;28;20204;-65
2023/09/05 05:54:27;;;;;;;1.57;1.57;;;;;;;19.04;100.00;99412.94;5112798;28;20690;-65
2023/09/05 05:56:56;;;;;;;1.60;1.50;;;;;;;19.08;100.00;99417.00;5112090;28;20664;-66
2023/09/05 05:59:26;;;;;;;2.23;1.80;;;;;;;19.09;100.00;99418.69;5113501;28;20192;-67
2023/09/05 06:01:53;;;;;;;1.70;1.57;;;;;;;19.13;100.00;99431.34;5111376;28;20249;-67
2023/09/05 06:04:20;;;;;;;1.87;1.77;;;;;;;19.18;100.00;99428.47;5111707;28;20201;-67
2023/09/05 06:06:49;;;;;;;2.20;2.07;;;;;;;19.24;100.00;99434.09;5112539;28;20682;-66
2023/09/05 06:09:16;;;;;;;2.73;1.73;;;;;;;19.29;100.00;99441.59;5112862;28;20296;-66
2023/09/05 06:11:43;;;;;;;1.30;1.30;;;;;;;19.31;100.00;99434.53;5112455;28;20248;-66
2023/09/05 06:14:10;;;;;;;1.50;1.47;;;;;;;19.36;100.00;99438.50;5112236;28;20208;-66
2023/09/05 06:16:38;;;;;;;1.23;1.23;;;;;;;19.42;100.00;99431.28;5112618;28;20193;-66
2023/09/05 06:19:07;;;;;;;1.77;1.77;;;;;;;19.41;100.00;99446.03;5112458;28;20202;-66
2023/09/05 06:21:34;;;;;;;1.37;1.37;;;;;;;19.38;100.00;99446.22;5110815;28;20292;-66
2023/09/05 06:24:00;;;;;;;1.50;1.40;;;;;;;19.37;100.00;99437.56;5112846;28;20205;-65
2023/09/05 06:26:27;;;;;;;1.37;1.30;;;;;;;19.33;100.00;99456.06;5112047;28;20265;-65
2023/09/05 06:28:54;;;;;;;0.93;0.93;;;;;;;19.29;100.00;99451.97;5112724;28;20622;-66
2023/09/05 06:31:21;;;;;;;1.83;1.73;;;;;;;19.27;100.00;99469.47;5112551;28;20704;-64
2023/09/05 06:33:49;;;;;;;1.87;1.77;;;;;;;19.28;100.00;99478.94;5112055;28;20258;-65
2023/09/05 06:36:16;;;;;;;1.77;1.70;;;;;;;19.24;100.00;99480.06;5112781;28;20231;-65
2023/09/05 06:38:43;;;;;;;1.50;1.13;;;;;;;19.29;100.00;99483.19;5110413;27;20665;-66
2023/09/05 06:41:11;;;;;;;1.97;1.87;;;;;;;19.23;100.00;99486.19;5111306;28;20266;-65
2023/09/05 06:43:38;;;;;;;1.57;1.57;;;;;;;19.18;100.00;99491.69;5111639;28;20209;-66
2023/09/05 06:46:07;;;;;;;3.43;1.07;;;;;;;19.13;100.00;99490.28;5111748;28;20743;-66
2023/09/05 06:48:34;;;;;;;1.43;1.33;;;;;;;19.10;100.00;99487.88;5110817;28;20255;-66
2023/09/05 06:51:02;;;;;;;1.80;1.70;;;;;;;19.02;100.00;99491.00;5111464;28;20211;-66
2023/09/05 06:53:30;;;;;;;1.70;1.70;;;;;;;19.02;100.00;99485.78;5110872;28;20200;-66
2023/09/05 06:55:56;;;;;;;1.97;1.43;;;;;;;19.04;100.00;99493.47;5111039;27;20602;-66
2023/09/05 06:58:25;;;;;;;1.97;1.87;;;;;;;19.07;100.00;99506.28;5111274;28;20256;-65
2023/09/05 07:00:54;;;;;;;2.07;1.97;;;;;;;19.09;100.00;99527.81;5110041;28;20200;-66
2023/09/05 07:03:21;;;;;;;1.80;1.70;;;;;;;19.08;100.00;99533.94;5112077;28;20199;-66
2023/09/05 07:05:48;;;;;;;2.47;1.83;;;;;;;19.10;100.00;99545.06;5111073;28;20229;-66
2023/09/05 07:08:16;;;;;;;2.23;2.13;;;;;;;19.05;100.00;99531.53;5111515;28;20310;-66
2023/09/05 07:10:43;;;;;;;1.80;1.70;;;;;;;19.06;100.00;99539.25;5110043;28;20201;-65
2023/09/05 07:13:09;;;;;;;2.33;2.23;;;;;;;19.05;100.00;99541.91;5110068;28;20536;-65
2023/09/05 07:15:36;;;;;;;4.90;1.80;;;;;;;19.04;100.00;99524.66;5111431;28;20202;-66
2023/09/05 07:18:04;;;;;;;3.30;2.37;;;;;;;19.11;100.00;99534.59;5109110;28;20206;-66
2023/09/05 07:20:31;;;;;;;2.03;1.87;;;;;;;19.12;100.00;99540.63;5108499;28;20282;-66
2023/09/05 07:22:58;;;;;;;2.20;1.97;;;;;;;19.12;100.00;99543.22;5111895;28;20204;-66
2023/09/05 07:25:26;;;;;;;1.47;1.37;;;;;;;19.07;100.00;99540.06;5110911;28;20652;-66
2023/09/05 07:27:52;;;;;;;2.30;1.50;;;;;;;19.03;100.00;99539.41;5109942;28;20270;-66
2023/09/05 07:30:19;;;;;;;1.97;1.87;;;;;;;19.03;100.00;99543.78;5110154;28;20200;-66
2023/09/05 07:32:46;;;;;;;1.90;1.80;;;;;;;19.04;100.00;99540.25;5109506;28;20201;-65
2023/09/05 07:35:13;;;;;;;1.53;1.50;;;;;;;19.03;100.00;99541.19;5108610;28;20262;-66
2023/09/05 07:37:41;;;;;;;1.90;1.80;;;;;;;19.01;100.00;99545.63;5111639;28;20891;-66
2023/09/05 07:40:11;;;;;;;1.70;1.60;;;;;;;19.02;100.00;99542.13;5111475;28;20226;-67
2023/09/05 07:42:41;;;;;;;1.73;1.67;;;;;;;19.01;100.00;99550.84;5112835;28;20200;-66
2023/09/05 07:45:09;;;;;;;1.87;1.77;;;;;;;18.99;100.00;99553.53;5112644;28;20676;-66
2023/09/05 07:47:36;;;;;;;1.70;1.70;;;;;;;18.99;100.00;99544.91;5107241;28;20213;-66
2023/09/05 07:50:03;;;;;;;1.70;1.70;;;;;;;18.96;100.00;99542.50;5110305;28;20201;-66
2023/09/05 07:52:30;;;;;;;1.77;1.67;;;;;;;18.97;100.00;99546.75;5110251;28;20200;-66
2023/09/05 07:54:56;;;;;;;1.43;1.43;;;;;;;18.96;100.00;99548.53;5109858;28;20249;-66
2023/09/05 07:57:23;;;;;;;1.70;1.60;;;;;;;19.00;100.00;99544.00;5111239;28;20254;-67
2023/09/05 07:59:51;;;;;;;1.70;1.60;;;;;;;19.03;100.00;99549.81;5105191;28;20195;-67
2023/09/05 08:02:18;;;;;;;1.50;1.50;;;;;;;19.01;100.00;99543.03;5109000;28;20635;-66
2023/09/05 08:04:45;;;;;;;2.00;1.90;;;;;;;19.08;100.00;99545.16;5110155;28;20201;-66
2023/09/05 08:07:12;;;;;;;1.73;1.63;;;;;;;19.08;100.00;99539.13;5108989;28;20235;-66
2023/09/05 08:09:39;;;;;;;1.53;1.53;;;;;;;19.07;100.00;99540.06;5104900;28;20286;-66
2023/09/05 08:12:06;;;;;;;3.17;1.60;;;;;;;19.06;100.00;99536.66;5107559;28;20664;-66
2023/09/05 08:14:32;;;;;;;1.70;1.70;;;;;;;18.97;100.00;99539.78;5110672;28;20208;-66
2023/09/05 08:17:01;;;;;;;2.03;1.93;;;;;;;19.00;100.00;99538.78;5108551;28;20191;-66
2023/09/05 08:19:27;;;;;;;1.90;1.80;;;;;;;19.04;100.00;99535.06;5108280;28;20196;-66
2023/09/05 08:21:54;;;;;;;2.10;2.00;;;;;;;19.05;100.00;99537.56;5110100;28;20253;-66
2023/09/05 08:24:21;;;;;;;1.83;1.73;;;;;;;19.08;100.00;99546.94;5110216;28;20567;-66
2023/09/05 08:26:47;;;;;;;2.30;2.10;;;;;;;19.16;100.00;99552.50;5109912;28;20217;-66
2023/09/05 08:29:15;;;;;;;1.33;1.33;;;;;;;19.27;100.00;99547.44;5108767;28;20262;-66
2023/09/05 08:31:41;;;;;;;1.63;1.53;;;;;;;19.38;100.00;99539.81;5107442;28;20213;-66
2023/09/05 08:34:10;;;;;;;2.20;1.60;;;;;;;19.65;100.00;99538.03;5110060;28;20215;-66
2023/09/05 08:36:36;;;;;;;2.17;2.07;;;;;;;19.87;100.00;99527.09;5109558;28;20205;-66
2023/09/05 08:39:04;;;;;;;2.17;2.07;;;;;;;20.15;100.00;99549.50;5109718;28;20270;-66
2023/09/05 08:41:31;;;;;;;2.30;2.20;;;;;;;20.31;100.00;99555.38;5110513;28;20205;-66
2023/09/05 08:43:58;;;;;;;2.27;2.17;;;;;;;20.46;100.00;99556.94;5108705;28;20199;-66
2023/09/05 08:46:27;;;;;;;2.27;2.10;;;;;;;20.51;100.00;99539.22;5109126;28;20206;-66
2023/09/05 08:48:53;;;;;;;2.70;2.60;;;;;;;20.69;100.00;99540.56;5107847;28;20230;-66
2023/09/05 08:51:22;;;;;;;2.30;2.13;;;;;;;20.83;100.00;99543.03;5109381;28;20191;-66
2023/09/05 08:53:56;;;;;;;2.47;2.27;;;;;;;20.89;100.00;99547.00;5110284;28;20219;-66
2023/09/05 08:56:23;;;;;;;2.07;1.87;;;;;;;21.09;100.00;99545.59;5110469;28;20277;-65
2023/09/05 08:58:53;;;;;;;2.57;2.47;;;;;;;21.36;100.00;99541.03;5110307;28;20282;-64
2023/09/05 09:01:20;;;;;;;2.10;1.97;;;;;;;21.55;100.00;99543.97;5110148;28;20277;-65
2023/09/05 09:03:48;;;;;;;2.00;1.90;;;;;;;21.61;100.00;99543.53;5110113;28;20198;-64
2023/09/05 09:06:14;;;;;;;2.63;2.53;;;;;;;21.81;100.00;99555.94;5109995;28;20688;-66
2023/09/05 09:08:44;;;;;;;1.67;1.67;;;;;;;21.97;100.00;99556.50;5110178;28;20274;-66
2023/09/05 09:11:11;;;;;;;2.00;1.90;;;;;;;22.04;100.00;99550.81;5110246;28;20202;-66
2023/09/05 09:13:39;;;;;;;2.23;2.13;;;;;;;22.11;100.00;99557.25;5110389;28;20279;-66
2023/09/05 09:16:07;;;;;;;2.30;2.20;;;;;;;22.16;100.00;99565.59;5110078;28;20297;-65
2023/09/05 09:18:34;;;;;;;1.83;1.83;;;;;;;22.22;100.00;99565.13;5110813;28;20198;-66
2023/09/05 09:21:05;;;;;;;3.80;2.00;;;;;;;22.24;100.00;99577.09;5114414;28;20252;-65
2023/09/05 09:23:35;;;;;;;1.53;1.53;;;;;;;22.22;100.00;99570.34;5114085;28;20198;-65
2023/09/05 09:26:04;;;;;;;2.40;2.30;;;;;;;22.15;100.00;99561.28;5114381;28;20198;-66
2023/09/05 09:28:32;;;;;;;2.30;2.20;;;;;;;22.34;100.00;99572.03;5111205;28;20214;-65
2023/09/05 09:31:02;;;;;;;2.23;2.13;;;;;;;22.40;100.00;99579.38;5113419;28;20225;-65
2023/09/05 09:33:31;;;;;;;2.30;2.10;;;;;;;22.52;100.00;99575.84;5112854;28;20194;-65
2023/09/05 09:36:07;;;;;;;2.43;2.33;;;;;;;22.65;100.00;99584.41;5114180;28;20252;-65
2023/09/05 09:38:35;;;;;;;2.10;2.00;;;;;;;22.71;100.00;99589.22;5113445;28;20593;-65
2023/09/05 09:41:06;;;;;;;2.87;2.77;;;;;;;22.82;100.00;99591.81;5111794;28;20639;-65
2023/09/05 09:43:34;;;;;;;2.00;1.90;;;;;;;22.89;100.00;99602.63;5112546;28;20669;-65
2023/09/05 09:46:03;;;;;;;2.10;2.00;;;;;;;22.97;100.00;99595.03;5110818;28;20252;-65
2023/09/05 09:48:33;;;;;;;2.50;2.30;;;;;;;22.99;100.00;99586.13;5112468;28;20214;-65
2023/09/05 09:51:01;;;;;;;2.57;2.47;;;;;;;23.11;100.00;99599.16;5113388;28;20198;-65
2023/09/05 09:53:34;;;;;;;2.20;2.10;;;;;;;23.17;100.00;99596.06;5110844;28;20263;-65
2023/09/05 09:56:09;;;;;;;2.40;2.20;;;;;;;23.18;100.00;99600.34;5112768;27;20209;-65
2023/09/05 09:58:40;;;;;;;2.37;2.27;;;;;;;23.26;100.00;99601.44;5111280;28;20250;-65
2023/09/05 10:01:07;;;;;;;2.07;1.97;;;;;;;23.20;100.00;99574.94;5109788;28;20268;-65
2023/09/05 10:03:35;;;;;;;1.97;1.87;;;;;;;23.37;100.00;99608.41;5110688;28;20252;-65
2023/09/05 10:06:04;;;;;;;2.20;2.10;;;;;;;23.40;100.00;99610.81;5112799;28;20202;-65
2023/09/05 10:08:33;;;;;;;2.37;2.27;;;;;;;23.53;100.00;99608.88;5109710;28;20218;-65
2023/09/05 10:11:01;;;;;;;2.43;2.23;;;;;;;23.66;100.00;99614.78;5111577;28;20195;-65
2023/09/05 10:13:33;;;;;;;2.57;2.43;;;;;;;23.76;100.00;99615.72;5112949;28;20226;-64
2023/09/05 10:16:01;;;;;;;1.97;1.87;;;;;;;23.88;100.00;99608.63;5111842;28;20205;-65
2023/09/05 10:18:30;;;;;;;1.97;1.87;;;;;;;24.01;100.00;99620.63;5111904;28;20581;-65
2023/09/05 10:20:58;;;;;;;3.77;2.07;;;;;;;24.14;100.00;99619.63;5112168;28;20645;-64
2023/09/05 10:23:26;;;;;;;1.67;1.60;;;;;;;24.27;96.06;99626.34;5112637;28;20198;-65
2023/09/05 10:25:55;;;;;;;1.80;1.70;;;;;;;24.35;93.89;99626.56;5112817;28;20630;-64
2023/09/05 10:28:25;;;;;;;2.20;2.10;;;;;;;24.46;94.27;99626.47;5112395;28;20249;-65
2023/09/05 10:30:55;;;;;;;2.07;1.87;;;;;;;24.55;94.62;99635.38;5109230;28;20494;-65
2023/09/05 10:33:33;;;;;;;2.40;2.30;;;;;;;24.49;94.06;99614.94;5112281;28;20247;-64
2023/09/05 10:36:00;;;;;;;2.30;2.20;;;;;;;24.61;92.05;99639.28;5111830;28;20202;-64
2023/09/05 10:38:29;;;;;;;2.07;1.97;;;;;;;24.63;94.42;99632.09;5107580;28;20203;-67
2023/09/05 10:40:56;;;;;;;2.10;2.00;;;;;;;24.61;94.50;99624.38;5109347;28;20256;-67
2023/09/05 10:43:23;;;;;;;1.87;1.87;;;;;;;24.61;94.17;99629.63;5106335;28;20206;-66
2023/09/05 10:45:56;;;;;;;2.37;2.27;;;;;;;24.55;93.87;99623.13;5107637;28;20264;-67
2023/09/05 10:48:33;;;;;;;6.87;2.17;;;;;;;24.68;96.63;99628.16;5107903;28;20271;-66
2023/09/05 10:51:13;;;;;;;2.37;2.27;;;;;;;24.63;93.25;99606.72;5110744;28;20194;-64
2023/09/05 10:53:41;;;;;;;2.00;1.90;;;;;;;24.78;90.35;99625.56;5108798;28;20222;-64
2023/09/05 10:56:40;;;;;;;2.47;2.37;;;;;;;24.81;89.09;99626.16;5109576;28;20206;-65
2023/09/05 10:59:10;;;;;;;8.90;2.40;;;;;;;24.83;90.67;99634.72;5108245;28;20202;-65
2023/09/05 11:01:47;;;;;;;2.10;2.00;;;;;;;24.67;88.55;99618.59;5109882;28;20209;-65
2023/09/05 11:04:20;;;;;;;1.80;1.80;;;;;;;24.63;82.80;99640.78;5108454;28;20197;-65
2023/09/05 11:07:02;;;;;;;2.05;1.95;;;;;;;24.58;84.13;99635.13;5111310;28;20439;-68
2023/09/05 11:09:29;;;;;;;2.23;2.13;;;;;;;24.76;82.17;99641.41;5112521;28;20210;-68
2023/09/05 11:11:56;;;;;;;1.73;1.30;;;;;;;24.66;83.97;99619.56;5110940;28;20222;-68
2023/09/05 11:14:34;;;;;;;2.83;2.03;;;;;;;24.75;84.18;99637.13;5111500;28;20674;-68
2023/09/05 11:17:02;;;;;;;1.97;1.87;;;;;;;24.68;83.74;99640.41;5109057;28;20251;-68
2023/09/05 11:19:46;;;;;;;2.10;2.00;;;;;;;24.74;86.38;99640.72;5111988;28;20211;-68
2023/09/05 11:22:17;;;;;;;1.83;1.73;;;;;;;24.63;83.10;99648.66;5109498;28;20216;-69
2023/09/05 11:24:48;;;;;;;2.20;2.10;;;;;;;24.42;83.72;99645.22;5112623;28;20213;-68
2023/09/05 11:27:17;;;;;;;1.90;1.80;;;;;;;24.33;82.94;99646.00;5113083;28;20203;-69
2023/09/05 11:29:51;;;;;;;1.50;1.50;;;;;;;24.08;84.32;99641.91;5112820;28;20232;-68
2023/09/05 11:32:20;;;;;;;1.90;1.80;;;;;;;23.96;84.66;99643.75;5112962;28;20256;-69